sensor_id;sensor_type;location;lat;lon;timestamp;temperature;humidity
53599;DHT22;39485;45.702;11.364;2023-07-13T00:06:55;18.90;99.90
53599;DHT22;39485;45.702;11.364;2023-07-13T00:09:34;18.90;99.90
53599;DHT22;39485;45.702;11.364;2023-07-13T00:12:30;18.80;99.90
53599;DHT22;39485;45.702;11.364;2023-07-13T00:15:00;18.90;99.90
53599;DHT22;39485;45.702;11.364;2023-07-13T00:17:29;18.90;99.90
53599;DHT22;39485;45.702;11.364;2023-07-13T00:20:28;19.00;99.90
53599;DHT22;39485;45.702;11.364;2023-07-13T00:26:28;19.20;99.90
53599;DHT22;39485;45.702;11.364;2023-07-13T00:29:39;19.20;99.90
53599;DHT22;39485;45.702;11.364;2023-07-13T00:32:06;19.20;99.90
53599;DHT22;39485;45.702;11.364;2023-07-13T00:34:33;19.20;99.90
53599;DHT22;39485;45.702;11.364;2023-07-13T00:36:59;19.10;99.90
53599;DHT22;39485;45.702;11.364;2023-07-13T00:39:28;19.10;99.90
53599;DHT22;39485;45.702;11.364;2023-07-13T00:41:54;19.10;99.90
53599;DHT22;39485;45.702;11.364;2023-07-13T00:44:20;19.10;99.90
53599;DHT22;39485;45.702;11.364;2023-07-13T00:46:49;19.10;99.90
53599;DHT22;39485;45.702;11.364;2023-07-13T00:49:20;19.10;99.90
53599;DHT22;39485;45.702;11.364;2023-07-13T00:59:14;19.10;99.90
53599;DHT22;39485;45.702;11.364;2023-07-13T01:08:46;19.20;99.90
53599;DHT22;39485;45.702;11.364;2023-07-13T01:18:33;18.90;99.90
53599;DHT22;39485;45.702;11.364;2023-07-13T01:21:02;18.80;99.90
53599;DHT22;39485;45.702;11.364;2023-07-13T01:23:36;18.90;99.90
53599;DHT22;39485;45.702;11.364;2023-07-13T01:26:25;18.90;99.90
53599;DHT22;39485;45.702;11.364;2023-07-13T01:29:00;18.90;99.90
53599;DHT22;39485;45.702;11.364;2023-07-13T01:31:37;19.00;99.90
53599;DHT22;39485;45.702;11.364;2023-07-13T01:34:03;19.00;99.90
53599;DHT22;39485;45.702;11.364;2023-07-13T01:36:50;19.00;99.90
53599;DHT22;39485;45.702;11.364;2023-07-13T01:39:25;19.00;99.90
53599;DHT22;39485;45.702;11.364;2023-07-13T01:41:51;19.00;99.90
53599;DHT22;39485;45.702;11.364;2023-07-13T01:44:33;19.00;99.90
53599;DHT22;39485;45.702;11.364;2023-07-13T01:50:42;19.00;99.90
53599;DHT22;39485;45.702;11.364;2023-07-13T01:53:25;18.90;99.90
53599;DHT22;39485;45.702;11.364;2023-07-13T01:59:08;18.90;99.90
53599;DHT22;39485;45.702;11.364;2023-07-13T02:01:36;18.90;99.90
53599;DHT22;39485;45.702;11.364;2023-07-13T02:04:02;18.90;99.90
53599;DHT22;39485;45.702;11.364;2023-07-13T02:06:29;18.90;99.90
53599;DHT22;39485;45.702;11.364;2023-07-13T02:08:57;19.00;99.90
53599;DHT22;39485;45.702;11.364;2023-07-13T02:11:33;18.90;99.90
53599;DHT22;39485;45.702;11.364;2023-07-13T02:14:02;19.00;99.90
53599;DHT22;39485;45.702;11.364;2023-07-13T02:16:29;19.00;99.90
53599;DHT22;39485;45.702;11.364;2023-07-13T02:18:56;18.90;99.90
53599;DHT22;39485;45.702;11.364;2023-07-13T02:21:26;18.90;99.90
53599;DHT22;39485;45.702;11.364;2023-07-13T02:23:52;18.90;99.90
53599;DHT22;39485;45.702;11.364;2023-07-13T02:26:18;18.90;99.90
53599;DHT22;39485;45.702;11.364;2023-07-13T02:28:47;18.80;99.90
53599;DHT22;39485;45.702;11.364;2023-07-13T02:31:17;18.80;99.90
53599;DHT22;39485;45.702;11.364;2023-07-13T02:33:52;18.80;99.90
53599;DHT22;39485;45.702;11.364;2023-07-13T02:36:23;18.80;99.90
53599;DHT22;39485;45.702;11.364;2023-07-13T02:38:50;18.80;99.90
53599;DHT22;39485;45.702;11.364;2023-07-13T02:41:16;18.80;99.90
53599;DHT22;39485;45.702;11.364;2023-07-13T02:43:42;18.80;99.90
53599;DHT22;39485;45.702;11.364;2023-07-13T02:46:08;18.80;99.90
53599;DHT22;39485;45.702;11.364;2023-07-13T02:48:34;18.80;99.90
53599;DHT22;39485;45.702;11.364;2023-07-13T02:51:04;18.80;99.90
53599;DHT22;39485;45.702;11.364;2023-07-13T02:53:33;18.80;99.90
53599;DHT22;39485;45.702;11.364;2023-07-13T02:56:10;18.80;99.90
53599;DHT22;39485;45.702;11.364;2023-07-13T02:58:36;18.80;99.90
53599;DHT22;39485;45.702;11.364;2023-07-13T03:01:11;18.80;99.90
53599;DHT22;39485;45.702;11.364;2023-07-13T03:03:37;18.80;99.90
53599;DHT22;39485;45.702;11.364;2023-07-13T03:06:05;18.90;99.90
53599;DHT22;39485;45.702;11.364;2023-07-13T03:08:33;18.80;99.90
53599;DHT22;39485;45.702;11.364;2023-07-13T03:11:14;18.90;99.90
53599;DHT22;39485;45.702;11.364;2023-07-13T03:13:41;18.90;99.90
53599;DHT22;39485;45.702;11.364;2023-07-13T03:16:16;18.90;99.90
53599;DHT22;39485;45.702;11.364;2023-07-13T03:18:42;18.90;99.90
53599;DHT22;39485;45.702;11.364;2023-07-13T03:21:13;18.90;99.90
53599;DHT22;39485;45.702;11.364;2023-07-13T03:23:39;18.90;99.90
53599;DHT22;39485;45.702;11.364;2023-07-13T03:26:11;18.90;99.90
53599;DHT22;39485;45.702;11.364;2023-07-13T03:28:42;18.90;99.90
53599;DHT22;39485;45.702;11.364;2023-07-13T03:31:14;18.90;99.90
53599;DHT22;39485;45.702;11.364;2023-07-13T03:33:59;18.90;99.90
53599;DHT22;39485;45.702;11.364;2023-07-13T03:36:27;18.90;99.90
53599;DHT22;39485;45.702;11.364;2023-07-13T03:38:57;18.90;99.90
53599;DHT22;39485;45.702;11.364;2023-07-13T03:41:26;19.00;99.90
53599;DHT22;39485;45.702;11.364;2023-07-13T03:43:53;19.00;99.90
53599;DHT22;39485;45.702;11.364;2023-07-13T03:46:21;19.00;99.90
53599;DHT22;39485;45.702;11.364;2023-07-13T03:49:08;19.00;99.90
53599;DHT22;39485;45.702;11.364;2023-07-13T03:51:35;19.00;99.90
53599;DHT22;39485;45.702;11.364;2023-07-13T03:54:01;19.00;99.90
53599;DHT22;39485;45.702;11.364;2023-07-13T03:56:30;19.00;99.90
53599;DHT22;39485;45.702;11.364;2023-07-13T03:59:00;19.00;99.90
53599;DHT22;39485;45.702;11.364;2023-07-13T04:01:30;19.00;99.90
53599;DHT22;39485;45.702;11.364;2023-07-13T04:03:56;19.00;99.90
53599;DHT22;39485;45.702;11.364;2023-07-13T04:07:06;19.10;99.90
53599;DHT22;39485;45.702;11.364;2023-07-13T04:09:38;19.10;99.90
53599;DHT22;39485;45.702;11.364;2023-07-13T04:12:22;19.20;99.90
53599;DHT22;39485;45.702;11.364;2023-07-13T04:14:48;19.20;99.90
53599;DHT22;39485;45.702;11.364;2023-07-13T04:17:20;19.20;99.90
53599;DHT22;39485;45.702;11.364;2023-07-13T04:19:49;19.20;99.90
53599;DHT22;39485;45.702;11.364;2023-07-13T04:22:21;19.20;99.90
53599;DHT22;39485;45.702;11.364;2023-07-13T04:25:08;19.20;99.90
53599;DHT22;39485;45.702;11.364;2023-07-13T04:27:34;19.20;99.90
53599;DHT22;39485;45.702;11.364;2023-07-13T04:30:06;19.20;99.90
53599;DHT22;39485;45.702;11.364;2023-07-13T04:33:13;19.20;99.90
53599;DHT22;39485;45.702;11.364;2023-07-13T04:35:42;19.20;99.90
53599;DHT22;39485;45.702;11.364;2023-07-13T04:38:41;19.20;99.90
53599;DHT22;39485;45.702;11.364;2023-07-13T04:41:14;19.20;99.90
53599;DHT22;39485;45.702;11.364;2023-07-13T04:55:46;19.50;99.90
53599;DHT22;39485;45.702;11.364;2023-07-13T05:13:08;19.80;99.90
53599;DHT22;39485;45.702;11.364;2023-07-13T05:25:54;20.00;99.90
53599;DHT22;39485;45.702;11.364;2023-07-13T05:38:38;20.50;99.90
53599;DHT22;39485;45.702;11.364;2023-07-13T05:41:07;20.60;99.90
53599;DHT22;39485;45.702;11.364;2023-07-13T05:43:33;20.70;99.90
53599;DHT22;39485;45.702;11.364;2023-07-13T05:45:59;20.80;99.90
53599;DHT22;39485;45.702;11.364;2023-07-13T05:48:28;20.80;99.90
53599;DHT22;39485;45.702;11.364;2023-07-13T05:50:54;20.90;99.90
53599;DHT22;39485;45.702;11.364;2023-07-13T05:53:20;20.90;99.90
53599;DHT22;39485;45.702;11.364;2023-07-13T05:55:47;20.90;99.90
53599;DHT22;39485;45.702;11.364;2023-07-13T05:58:13;20.90;99.90
53599;DHT22;39485;45.702;11.364;2023-07-13T06:00:39;20.90;99.90
53599;DHT22;39485;45.702;11.364;2023-07-13T06:03:06;20.90;99.90
53599;DHT22;39485;45.702;11.364;2023-07-13T06:05:32;20.80;99.90
53599;DHT22;39485;45.702;11.364;2023-07-13T06:07:59;20.80;99.90
53599;DHT22;39485;45.702;11.364;2023-07-13T06:10:25;20.80;99.90
53599;DHT22;39485;45.702;11.364;2023-07-13T06:12:50;20.80;99.90
53599;DHT22;39485;45.702;11.364;2023-07-13T06:15:16;20.80;99.90
53599;DHT22;39485;45.702;11.364;2023-07-13T06:17:42;20.90;99.90
53599;DHT22;39485;45.702;11.364;2023-07-13T06:20:08;20.90;99.90
53599;DHT22;39485;45.702;11.364;2023-07-13T06:22:33;21.00;99.90
53599;DHT22;39485;45.702;11.364;2023-07-13T06:24:59;21.10;99.90
53599;DHT22;39485;45.702;11.364;2023-07-13T06:27:25;21.20;99.90
53599;DHT22;39485;45.702;11.364;2023-07-13T06:29:50;21.20;99.90
53599;DHT22;39485;45.702;11.364;2023-07-13T06:32:16;21.30;99.90
53599;DHT22;39485;45.702;11.364;2023-07-13T06:34:42;21.30;99.90
53599;DHT22;39485;45.702;11.364;2023-07-13T06:37:09;21.50;99.90
53599;DHT22;39485;45.702;11.364;2023-07-13T06:39:35;21.50;99.90
53599;DHT22;39485;45.702;11.364;2023-07-13T06:42:01;21.60;99.90
53599;DHT22;39485;45.702;11.364;2023-07-13T06:44:47;21.70;99.90
53599;DHT22;39485;45.702;11.364;2023-07-13T06:47:36;21.80;99.90
53599;DHT22;39485;45.702;11.364;2023-07-13T07:35:45;22.10;99.90
53599;DHT22;39485;45.702;11.364;2023-07-13T07:57:00;22.50;99.90
53599;DHT22;39485;45.702;11.364;2023-07-13T08:00:11;22.50;99.90
53599;DHT22;39485;45.702;11.364;2023-07-13T08:03:36;22.50;99.90
53599;DHT22;39485;45.702;11.364;2023-07-13T09:52:09;22.70;99.90
53599;DHT22;39485;45.702;11.364;2023-07-13T22:18:53;19.90;99.90
53599;DHT22;39485;45.702;11.364;2023-07-13T22:21:20;19.80;99.90
53599;DHT22;39485;45.702;11.364;2023-07-13T22:23:47;19.80;99.90
53599;DHT22;39485;45.702;11.364;2023-07-13T22:26:31;19.80;99.90
53599;DHT22;39485;45.702;11.364;2023-07-13T22:29:00;19.80;99.90
53599;DHT22;39485;45.702;11.364;2023-07-13T22:31:27;19.80;99.90
53599;DHT22;39485;45.702;11.364;2023-07-13T22:33:54;19.80;99.90
53599;DHT22;39485;45.702;11.364;2023-07-13T22:36:19;19.80;99.90
53599;DHT22;39485;45.702;11.364;2023-07-13T22:38:46;19.80;99.90
53599;DHT22;39485;45.702;11.364;2023-07-13T22:41:14;19.80;99.90
53599;DHT22;39485;45.702;11.364;2023-07-13T22:43:41;19.80;99.90
53599;DHT22;39485;45.702;11.364;2023-07-13T22:46:15;19.80;99.90
53599;DHT22;39485;45.702;11.364;2023-07-13T22:48:49;19.80;99.90
53599;DHT22;39485;45.702;11.364;2023-07-13T22:51:17;19.70;99.90
53599;DHT22;39485;45.702;11.364;2023-07-13T22:53:44;19.70;99.90
53599;DHT22;39485;45.702;11.364;2023-07-13T22:56:09;19.70;99.90
53599;DHT22;39485;45.702;11.364;2023-07-13T22:58:36;19.70;99.90
53599;DHT22;39485;45.702;11.364;2023-07-13T23:01:03;19.80;99.90
53599;DHT22;39485;45.702;11.364;2023-07-13T23:03:32;19.70;99.90
53599;DHT22;39485;45.702;11.364;2023-07-13T23:05:59;19.70;99.90
53599;DHT22;39485;45.702;11.364;2023-07-13T23:08:27;19.70;99.90
53599;DHT22;39485;45.702;11.364;2023-07-13T23:10:54;19.70;99.90
53599;DHT22;39485;45.702;11.364;2023-07-13T23:13:30;19.70;99.90
53599;DHT22;39485;45.702;11.364;2023-07-13T23:15:55;19.70;99.90
53599;DHT22;39485;45.702;11.364;2023-07-13T23:18:22;19.70;99.90
53599;DHT22;39485;45.702;11.364;2023-07-13T23:20:48;19.70;99.90
53599;DHT22;39485;45.702;11.364;2023-07-13T23:23:16;19.70;99.90
53599;DHT22;39485;45.702;11.364;2023-07-13T23:25:43;19.60;99.90
53599;DHT22;39485;45.702;11.364;2023-07-13T23:28:11;19.60;99.90
53599;DHT22;39485;45.702;11.364;2023-07-13T23:30:39;19.60;99.90
53599;DHT22;39485;45.702;11.364;2023-07-13T23:33:24;19.70;99.90
53599;DHT22;39485;45.702;11.364;2023-07-13T23:35:51;19.60;99.90
53599;DHT22;39485;45.702;11.364;2023-07-13T23:38:21;19.60;99.90
53599;DHT22;39485;45.702;11.364;2023-07-13T23:40:47;19.60;99.90
53599;DHT22;39485;45.702;11.364;2023-07-13T23:43:13;19.60;99.90
53599;DHT22;39485;45.702;11.364;2023-07-13T23:45:38;19.60;99.90
53599;DHT22;39485;45.702;11.364;2023-07-13T23:48:05;19.60;99.90
53599;DHT22;39485;45.702;11.364;2023-07-13T23:50:33;19.60;99.90
53599;DHT22;39485;45.702;11.364;2023-07-13T23:52:59;19.60;99.90
53599;DHT22;39485;45.702;11.364;2023-07-13T23:55:28;19.60;99.90
53599;DHT22;39485;45.702;11.364;2023-07-13T23:57:59;19.60;99.90
